sensor_id;sensor_type;location;lat;lon;timestamp;P1;durP1;ratioP1;P2;durP2;ratioP2
84266;SDS011;74414;51.098;13.716;2024-03-25T00:01:29;2.93;;;1.50;;
84266;SDS011;74414;51.098;13.716;2024-03-25T00:03:54;2.92;;;1.70;;
84266;SDS011;74414;51.098;13.716;2024-03-25T00:06:20;3.50;;;1.70;;
84266;SDS011;74414;51.098;13.716;2024-03-25T00:08:45;5.00;;;1.77;;
84266;SDS011;74414;51.098;13.716;2024-03-25T00:11:10;3.20;;;1.60;;
84266;SDS011;74414;51.098;13.716;2024-03-25T00:13:35;3.43;;;1.93;;
84266;SDS011;74414;51.098;13.716;2024-03-25T00:16:01;4.53;;;1.97;;
84266;SDS011;74414;51.098;13.716;2024-03-25T00:18:26;4.07;;;2.03;;
84266;SDS011;74414;51.098;13.716;2024-03-25T00:20:51;4.13;;;1.77;;
84266;SDS011;74414;51.098;13.716;2024-03-25T00:23:17;3.33;;;1.98;;
84266;SDS011;74414;51.098;13.716;2024-03-25T00:25:42;4.65;;;1.85;;
84266;SDS011;74414;51.098;13.716;2024-03-25T00:28:08;2.90;;;1.63;;
84266;SDS011;74414;51.098;13.716;2024-03-25T00:30:33;2.40;;;1.80;;
84266;SDS011;74414;51.098;13.716;2024-03-25T00:32:59;3.63;;;1.88;;
84266;SDS011;74414;51.098;13.716;2024-03-25T00:35:24;3.03;;;1.70;;
84266;SDS011;74414;51.098;13.716;2024-03-25T00:37:50;2.63;;;2.07;;
84266;SDS011;74414;51.098;13.716;2024-03-25T00:40:15;3.00;;;1.80;;
84266;SDS011;74414;51.098;13.716;2024-03-25T00:42:40;4.50;;;2.60;;
84266;SDS011;74414;51.098;13.716;2024-03-25T00:45:06;3.70;;;1.70;;
84266;SDS011;74414;51.098;13.716;2024-03-25T00:47:32;4.13;;;2.10;;
84266;SDS011;74414;51.098;13.716;2024-03-25T00:49:57;3.10;;;1.98;;
84266;SDS011;74414;51.098;13.716;2024-03-25T00:52:23;3.10;;;1.63;;
84266;SDS011;74414;51.098;13.716;2024-03-25T00:54:48;3.23;;;1.90;;
84266;SDS011;74414;51.098;13.716;2024-03-25T00:57:13;2.13;;;1.73;;
84266;SDS011;74414;51.098;13.716;2024-03-25T00:59:39;4.18;;;2.00;;
84266;SDS011;74414;51.098;13.716;2024-03-25T01:02:04;2.50;;;1.88;;
84266;SDS011;74414;51.098;13.716;2024-03-25T01:04:30;3.25;;;2.25;;
84266;SDS011;74414;51.098;13.716;2024-03-25T01:06:56;2.75;;;1.80;;
84266;SDS011;74414;51.098;13.716;2024-03-25T01:09:21;4.28;;;2.08;;
84266;SDS011;74414;51.098;13.716;2024-03-25T01:11:48;4.55;;;2.05;;
84266;SDS011;74414;51.098;13.716;2024-03-25T01:14:13;4.35;;;1.85;;
84266;SDS011;74414;51.098;13.716;2024-03-25T01:16:38;5.53;;;2.03;;
84266;SDS011;74414;51.098;13.716;2024-03-25T01:19:04;5.15;;;2.22;;
84266;SDS011;74414;51.098;13.716;2024-03-25T01:21:29;4.40;;;2.45;;
84266;SDS011;74414;51.098;13.716;2024-03-25T01:23:55;3.50;;;2.58;;
84266;SDS011;74414;51.098;13.716;2024-03-25T01:26:21;3.95;;;2.55;;
84266;SDS011;74414;51.098;13.716;2024-03-25T01:28:47;4.43;;;2.60;;
84266;SDS011;74414;51.098;13.716;2024-03-25T01:31:12;3.00;;;2.25;;
84266;SDS011;74414;51.098;13.716;2024-03-25T01:33:37;3.63;;;2.10;;
84266;SDS011;74414;51.098;13.716;2024-03-25T01:36:03;2.38;;;2.15;;
84266;SDS011;74414;51.098;13.716;2024-03-25T01:38:29;2.30;;;1.75;;
84266;SDS011;74414;51.098;13.716;2024-03-25T01:40:54;3.80;;;1.98;;
84266;SDS011;74414;51.098;13.716;2024-03-25T01:43:21;3.25;;;1.90;;
84266;SDS011;74414;51.098;13.716;2024-03-25T01:45:47;2.30;;;1.70;;
84266;SDS011;74414;51.098;13.716;2024-03-25T01:48:12;1.93;;;1.70;;
84266;SDS011;74414;51.098;13.716;2024-03-25T01:50:42;2.65;;;2.00;;
84266;SDS011;74414;51.098;13.716;2024-03-25T01:53:09;3.05;;;1.80;;
84266;SDS011;74414;51.098;13.716;2024-03-25T01:55:37;2.78;;;1.90;;
84266;SDS011;74414;51.098;13.716;2024-03-25T01:58:03;3.55;;;1.73;;
84266;SDS011;74414;51.098;13.716;2024-03-25T02:00:30;3.17;;;2.28;;
84266;SDS011;74414;51.098;13.716;2024-03-25T02:02:56;3.65;;;2.00;;
84266;SDS011;74414;51.098;13.716;2024-03-25T02:05:22;4.70;;;1.98;;
84266;SDS011;74414;51.098;13.716;2024-03-25T02:07:48;2.92;;;2.08;;
84266;SDS011;74414;51.098;13.716;2024-03-25T02:10:15;4.68;;;2.95;;
84266;SDS011;74414;51.098;13.716;2024-03-25T02:12:41;3.83;;;2.58;;
84266;SDS011;74414;51.098;13.716;2024-03-25T02:15:08;4.50;;;2.97;;
84266;SDS011;74414;51.098;13.716;2024-03-25T02:17:35;6.05;;;3.10;;
84266;SDS011;74414;51.098;13.716;2024-03-25T02:20:02;6.50;;;3.45;;
84266;SDS011;74414;51.098;13.716;2024-03-25T02:22:28;5.45;;;3.47;;
84266;SDS011;74414;51.098;13.716;2024-03-25T02:24:55;5.50;;;3.60;;
84266;SDS011;74414;51.098;13.716;2024-03-25T02:27:22;4.95;;;3.05;;
84266;SDS011;74414;51.098;13.716;2024-03-25T02:29:50;8.02;;;3.58;;
84266;SDS011;74414;51.098;13.716;2024-03-25T02:32:16;6.50;;;3.88;;
84266;SDS011;74414;51.098;13.716;2024-03-25T02:34:45;4.35;;;3.17;;
84266;SDS011;74414;51.098;13.716;2024-03-25T02:37:13;7.45;;;3.92;;
84266;SDS011;74414;51.098;13.716;2024-03-25T02:39:39;4.10;;;3.13;;
84266;SDS011;74414;51.098;13.716;2024-03-25T02:42:05;5.72;;;3.85;;
84266;SDS011;74414;51.098;13.716;2024-03-25T02:44:30;6.43;;;3.85;;
84266;SDS011;74414;51.098;13.716;2024-03-25T02:46:57;7.10;;;4.07;;
84266;SDS011;74414;51.098;13.716;2024-03-25T02:49:23;5.30;;;3.63;;
84266;SDS011;74414;51.098;13.716;2024-03-25T02:51:49;6.35;;;3.97;;
84266;SDS011;74414;51.098;13.716;2024-03-25T02:54:15;8.65;;;4.50;;
84266;SDS011;74414;51.098;13.716;2024-03-25T02:56:41;8.70;;;4.13;;
84266;SDS011;74414;51.098;13.716;2024-03-25T02:59:06;6.55;;;3.92;;
84266;SDS011;74414;51.098;13.716;2024-03-25T03:01:32;7.47;;;3.67;;
84266;SDS011;74414;51.098;13.716;2024-03-25T03:03:57;5.85;;;3.78;;
84266;SDS011;74414;51.098;13.716;2024-03-25T03:06:23;6.63;;;3.67;;
84266;SDS011;74414;51.098;13.716;2024-03-25T03:08:49;7.35;;;3.47;;
84266;SDS011;74414;51.098;13.716;2024-03-25T03:11:14;6.65;;;3.40;;
84266;SDS011;74414;51.098;13.716;2024-03-25T03:13:40;5.53;;;3.58;;
84266;SDS011;74414;51.098;13.716;2024-03-25T03:16:05;6.20;;;3.47;;
84266;SDS011;74414;51.098;13.716;2024-03-25T03:18:31;6.20;;;3.53;;
84266;SDS011;74414;51.098;13.716;2024-03-25T03:20:56;6.00;;;3.40;;
84266;SDS011;74414;51.098;13.716;2024-03-25T03:23:22;6.68;;;3.92;;
84266;SDS011;74414;51.098;13.716;2024-03-25T03:25:48;5.47;;;3.10;;
84266;SDS011;74414;51.098;13.716;2024-03-25T03:28:14;6.72;;;3.53;;
84266;SDS011;74414;51.098;13.716;2024-03-25T03:30:40;6.60;;;3.28;;
84266;SDS011;74414;51.098;13.716;2024-03-25T03:33:06;6.00;;;3.10;;
84266;SDS011;74414;51.098;13.716;2024-03-25T03:35:34;4.97;;;3.13;;
84266;SDS011;74414;51.098;13.716;2024-03-25T03:38:00;5.00;;;3.22;;
84266;SDS011;74414;51.098;13.716;2024-03-25T03:40:26;6.32;;;3.10;;
84266;SDS011;74414;51.098;13.716;2024-03-25T03:42:51;4.57;;;2.55;;
84266;SDS011;74414;51.098;13.716;2024-03-25T03:45:17;4.20;;;2.70;;
84266;SDS011;74414;51.098;13.716;2024-03-25T03:47:42;5.75;;;2.63;;
84266;SDS011;74414;51.098;13.716;2024-03-25T03:50:09;4.38;;;2.53;;
84266;SDS011;74414;51.098;13.716;2024-03-25T03:52:35;5.22;;;2.28;;
84266;SDS011;74414;51.098;13.716;2024-03-25T03:55:00;7.55;;;2.97;;
84266;SDS011;74414;51.098;13.716;2024-03-25T03:57:26;3.58;;;2.47;;
84266;SDS011;74414;51.098;13.716;2024-03-25T03:59:52;7.57;;;2.55;;
84266;SDS011;74414;51.098;13.716;2024-03-25T04:02:17;5.88;;;2.90;;
84266;SDS011;74414;51.098;13.716;2024-03-25T04:04:43;4.90;;;2.58;;
84266;SDS011;74414;51.098;13.716;2024-03-25T04:07:08;5.78;;;2.60;;
84266;SDS011;74414;51.098;13.716;2024-03-25T04:09:33;5.97;;;2.40;;
84266;SDS011;74414;51.098;13.716;2024-03-25T04:11:59;5.80;;;2.67;;
84266;SDS011;74414;51.098;13.716;2024-03-25T04:14:25;5.03;;;2.97;;
84266;SDS011;74414;51.098;13.716;2024-03-25T04:16:51;5.18;;;2.33;;
84266;SDS011;74414;51.098;13.716;2024-03-25T04:19:18;6.80;;;2.30;;
84266;SDS011;74414;51.098;13.716;2024-03-25T04:21:44;6.90;;;2.53;;
84266;SDS011;74414;51.098;13.716;2024-03-25T04:24:09;5.30;;;2.67;;
84266;SDS011;74414;51.098;13.716;2024-03-25T04:26:35;5.07;;;2.37;;
84266;SDS011;74414;51.098;13.716;2024-03-25T04:29:00;5.20;;;2.20;;
84266;SDS011;74414;51.098;13.716;2024-03-25T04:31:25;4.90;;;2.00;;
84266;SDS011;74414;51.098;13.716;2024-03-25T04:33:50;5.57;;;1.83;;
84266;SDS011;74414;51.098;13.716;2024-03-25T04:36:16;4.73;;;2.43;;
84266;SDS011;74414;51.098;13.716;2024-03-25T04:38:41;3.53;;;1.90;;
84266;SDS011;74414;51.098;13.716;2024-03-25T04:41:06;5.20;;;2.13;;
84266;SDS011;74414;51.098;13.716;2024-03-25T04:43:31;4.73;;;1.90;;
84266;SDS011;74414;51.098;13.716;2024-03-25T04:46:00;3.67;;;1.70;;
84266;SDS011;74414;51.098;13.716;2024-03-25T04:48:25;3.88;;;2.10;;
84266;SDS011;74414;51.098;13.716;2024-03-25T04:50:51;4.33;;;2.07;;
84266;SDS011;74414;51.098;13.716;2024-03-25T04:53:16;3.03;;;1.53;;
84266;SDS011;74414;51.098;13.716;2024-03-25T04:55:41;4.82;;;1.90;;
84266;SDS011;74414;51.098;13.716;2024-03-25T04:58:07;4.23;;;1.70;;
84266;SDS011;74414;51.098;13.716;2024-03-25T05:00:32;3.88;;;1.65;;
84266;SDS011;74414;51.098;13.716;2024-03-25T05:02:57;2.93;;;1.67;;
84266;SDS011;74414;51.098;13.716;2024-03-25T05:05:23;2.90;;;1.58;;
84266;SDS011;74414;51.098;13.716;2024-03-25T05:07:49;2.28;;;1.60;;
84266;SDS011;74414;51.098;13.716;2024-03-25T05:10:14;2.23;;;1.47;;
84266;SDS011;74414;51.098;13.716;2024-03-25T05:12:40;3.83;;;2.03;;
84266;SDS011;74414;51.098;13.716;2024-03-25T05:15:05;5.80;;;1.90;;
84266;SDS011;74414;51.098;13.716;2024-03-25T05:17:31;3.85;;;1.70;;
84266;SDS011;74414;51.098;13.716;2024-03-25T05:19:56;6.07;;;3.37;;
84266;SDS011;74414;51.098;13.716;2024-03-25T05:22:21;7.20;;;2.27;;
84266;SDS011;74414;51.098;13.716;2024-03-25T05:24:47;4.20;;;2.10;;
84266;SDS011;74414;51.098;13.716;2024-03-25T05:27:12;3.10;;;2.63;;
84266;SDS011;74414;51.098;13.716;2024-03-25T05:29:37;4.13;;;2.73;;
84266;SDS011;74414;51.098;13.716;2024-03-25T05:32:02;4.10;;;2.47;;
84266;SDS011;74414;51.098;13.716;2024-03-25T05:34:28;6.10;;;3.20;;
84266;SDS011;74414;51.098;13.716;2024-03-25T05:36:54;4.35;;;3.30;;
84266;SDS011;74414;51.098;13.716;2024-03-25T05:39:20;5.80;;;2.70;;
84266;SDS011;74414;51.098;13.716;2024-03-25T05:41:45;5.57;;;3.72;;
84266;SDS011;74414;51.098;13.716;2024-03-25T05:44:11;4.40;;;2.40;;
84266;SDS011;74414;51.098;13.716;2024-03-25T05:46:36;4.77;;;3.07;;
84266;SDS011;74414;51.098;13.716;2024-03-25T05:49:02;5.32;;;2.92;;
84266;SDS011;74414;51.098;13.716;2024-03-25T05:51:28;5.90;;;2.75;;
84266;SDS011;74414;51.098;13.716;2024-03-25T05:53:54;4.07;;;2.90;;
84266;SDS011;74414;51.098;13.716;2024-03-25T05:56:19;3.97;;;2.40;;
84266;SDS011;74414;51.098;13.716;2024-03-25T05:58:45;4.27;;;2.63;;
84266;SDS011;74414;51.098;13.716;2024-03-25T06:01:10;10.52;;;3.13;;
84266;SDS011;74414;51.098;13.716;2024-03-25T06:03:36;3.77;;;2.63;;
84266;SDS011;74414;51.098;13.716;2024-03-25T06:06:01;4.73;;;2.80;;
84266;SDS011;74414;51.098;13.716;2024-03-25T06:08:26;4.97;;;3.00;;
84266;SDS011;74414;51.098;13.716;2024-03-25T06:10:52;4.90;;;2.65;;
84266;SDS011;74414;51.098;13.716;2024-03-25T06:13:18;5.57;;;2.92;;
84266;SDS011;74414;51.098;13.716;2024-03-25T06:15:43;3.03;;;2.42;;
84266;SDS011;74414;51.098;13.716;2024-03-25T06:18:09;3.92;;;2.70;;
84266;SDS011;74414;51.098;13.716;2024-03-25T06:20:34;4.75;;;3.40;;
84266;SDS011;74414;51.098;13.716;2024-03-25T06:22:59;4.57;;;3.13;;
84266;SDS011;74414;51.098;13.716;2024-03-25T06:25:25;6.17;;;3.10;;
84266;SDS011;74414;51.098;13.716;2024-03-25T06:27:50;6.50;;;3.43;;
84266;SDS011;74414;51.098;13.716;2024-03-25T06:30:15;5.23;;;3.37;;
84266;SDS011;74414;51.098;13.716;2024-03-25T06:32:59;4.85;;;3.00;;
84266;SDS011;74414;51.098;13.716;2024-03-25T06:35:44;6.93;;;3.03;;
84266;SDS011;74414;51.098;13.716;2024-03-25T06:38:10;3.92;;;2.85;;
84266;SDS011;74414;51.098;13.716;2024-03-25T06:40:35;5.45;;;2.90;;
84266;SDS011;74414;51.098;13.716;2024-03-25T06:43:01;4.07;;;2.53;;
84266;SDS011;74414;51.098;13.716;2024-03-25T06:45:26;4.43;;;2.33;;
84266;SDS011;74414;51.098;13.716;2024-03-25T06:47:52;5.88;;;2.35;;
84266;SDS011;74414;51.098;13.716;2024-03-25T06:50:17;6.28;;;2.00;;
84266;SDS011;74414;51.098;13.716;2024-03-25T06:52:43;2.35;;;2.10;;
84266;SDS011;74414;51.098;13.716;2024-03-25T06:55:08;3.50;;;1.70;;
84266;SDS011;74414;51.098;13.716;2024-03-25T06:57:33;2.88;;;1.92;;
84266;SDS011;74414;51.098;13.716;2024-03-25T06:59:59;3.45;;;1.77;;
84266;SDS011;74414;51.098;13.716;2024-03-25T07:02:24;5.10;;;1.45;;
84266;SDS011;74414;51.098;13.716;2024-03-25T07:04:50;3.53;;;1.57;;
84266;SDS011;74414;51.098;13.716;2024-03-25T07:07:15;2.95;;;1.20;;
84266;SDS011;74414;51.098;13.716;2024-03-25T07:09:40;6.47;;;2.57;;
84266;SDS011;74414;51.098;13.716;2024-03-25T07:12:06;3.35;;;1.60;;
84266;SDS011;74414;51.098;13.716;2024-03-25T07:14:32;3.88;;;1.50;;
84266;SDS011;74414;51.098;13.716;2024-03-25T07:16:57;6.68;;;2.45;;
84266;SDS011;74414;51.098;13.716;2024-03-25T07:19:22;14.07;;;5.23;;
84266;SDS011;74414;51.098;13.716;2024-03-25T07:21:48;19.00;;;6.60;;
84266;SDS011;74414;51.098;13.716;2024-03-25T07:24:13;7.00;;;3.03;;
84266;SDS011;74414;51.098;13.716;2024-03-25T07:26:38;4.90;;;2.05;;
84266;SDS011;74414;51.098;13.716;2024-03-25T07:29:04;6.15;;;1.98;;
84266;SDS011;74414;51.098;13.716;2024-03-25T07:31:29;3.53;;;2.10;;
84266;SDS011;74414;51.098;13.716;2024-03-25T07:33:54;5.05;;;2.13;;
84266;SDS011;74414;51.098;13.716;2024-03-25T07:36:20;1.92;;;1.70;;
84266;SDS011;74414;51.098;13.716;2024-03-25T07:38:45;2.30;;;1.87;;
84266;SDS011;74414;51.098;13.716;2024-03-25T07:41:10;3.60;;;1.67;;
84266;SDS011;74414;51.098;13.716;2024-03-25T07:43:36;3.40;;;1.50;;
84266;SDS011;74414;51.098;13.716;2024-03-25T07:46:01;1.60;;;1.20;;
84266;SDS011;74414;51.098;13.716;2024-03-25T07:48:27;4.57;;;1.77;;
84266;SDS011;74414;51.098;13.716;2024-03-25T07:50:52;3.43;;;1.37;;
84266;SDS011;74414;51.098;13.716;2024-03-25T07:53:17;1.93;;;1.27;;
84266;SDS011;74414;51.098;13.716;2024-03-25T07:55:43;2.88;;;1.80;;
84266;SDS011;74414;51.098;13.716;2024-03-25T07:58:08;3.60;;;2.08;;
84266;SDS011;74414;51.098;13.716;2024-03-25T08:00:34;3.23;;;1.87;;
84266;SDS011;74414;51.098;13.716;2024-03-25T08:02:59;3.72;;;1.40;;
84266;SDS011;74414;51.098;13.716;2024-03-25T08:05:26;5.55;;;1.80;;
84266;SDS011;74414;51.098;13.716;2024-03-25T08:07:51;3.35;;;2.03;;
84266;SDS011;74414;51.098;13.716;2024-03-25T08:10:17;3.27;;;1.83;;
84266;SDS011;74414;51.098;13.716;2024-03-25T08:12:42;3.80;;;1.83;;
84266;SDS011;74414;51.098;13.716;2024-03-25T08:15:07;3.80;;;1.77;;
84266;SDS011;74414;51.098;13.716;2024-03-25T08:17:33;3.13;;;2.00;;
84266;SDS011;74414;51.098;13.716;2024-03-25T08:19:58;3.87;;;2.13;;
84266;SDS011;74414;51.098;13.716;2024-03-25T08:22:23;3.70;;;1.80;;
84266;SDS011;74414;51.098;13.716;2024-03-25T08:24:49;2.23;;;2.03;;
84266;SDS011;74414;51.098;13.716;2024-03-25T08:27:14;3.40;;;1.73;;
84266;SDS011;74414;51.098;13.716;2024-03-25T08:29:40;2.58;;;1.90;;
84266;SDS011;74414;51.098;13.716;2024-03-25T08:32:05;2.58;;;2.00;;
84266;SDS011;74414;51.098;13.716;2024-03-25T08:34:31;4.88;;;2.03;;
84266;SDS011;74414;51.098;13.716;2024-03-25T08:36:56;1.97;;;1.73;;
84266;SDS011;74414;51.098;13.716;2024-03-25T08:39:22;2.13;;;1.80;;
84266;SDS011;74414;51.098;13.716;2024-03-25T08:41:47;2.73;;;1.80;;
84266;SDS011;74414;51.098;13.716;2024-03-25T08:44:12;3.97;;;2.20;;
84266;SDS011;74414;51.098;13.716;2024-03-25T08:46:39;3.75;;;1.83;;
84266;SDS011;74414;51.098;13.716;2024-03-25T08:49:04;3.72;;;1.80;;
84266;SDS011;74414;51.098;13.716;2024-03-25T08:51:30;2.15;;;1.90;;
84266;SDS011;74414;51.098;13.716;2024-03-25T08:53:55;2.03;;;1.65;;
84266;SDS011;74414;51.098;13.716;2024-03-25T08:56:20;4.53;;;2.38;;
84266;SDS011;74414;51.098;13.716;2024-03-25T08:58:46;4.90;;;2.37;;
84266;SDS011;74414;51.098;13.716;2024-03-25T09:01:11;5.80;;;2.22;;
84266;SDS011;74414;51.098;13.716;2024-03-25T09:03:39;5.63;;;1.92;;
84266;SDS011;74414;51.098;13.716;2024-03-25T09:06:05;2.70;;;1.90;;
84266;SDS011;74414;51.098;13.716;2024-03-25T09:08:32;3.00;;;2.20;;
84266;SDS011;74414;51.098;13.716;2024-03-25T09:11:18;2.00;;;1.73;;
84266;SDS011;74414;51.098;13.716;2024-03-25T09:13:43;6.67;;;1.93;;
84266;SDS011;74414;51.098;13.716;2024-03-25T09:16:09;4.03;;;1.80;;
84266;SDS011;74414;51.098;13.716;2024-03-25T09:18:34;2.72;;;2.10;;
84266;SDS011;74414;51.098;13.716;2024-03-25T09:21:00;5.13;;;2.22;;
84266;SDS011;74414;51.098;13.716;2024-03-25T09:23:25;2.60;;;1.95;;
84266;SDS011;74414;51.098;13.716;2024-03-25T09:25:51;3.03;;;1.90;;
84266;SDS011;74414;51.098;13.716;2024-03-25T09:28:17;2.53;;;1.75;;
84266;SDS011;74414;51.098;13.716;2024-03-25T09:30:42;3.42;;;1.80;;
84266;SDS011;74414;51.098;13.716;2024-03-25T09:33:08;2.88;;;1.92;;
84266;SDS011;74414;51.098;13.716;2024-03-25T09:35:34;2.10;;;1.73;;
84266;SDS011;74414;51.098;13.716;2024-03-25T09:37:59;2.45;;;1.92;;
84266;SDS011;74414;51.098;13.716;2024-03-25T09:40:24;2.23;;;1.57;;
84266;SDS011;74414;51.098;13.716;2024-03-25T09:42:52;4.03;;;1.88;;
84266;SDS011;74414;51.098;13.716;2024-03-25T09:45:21;4.43;;;1.58;;
84266;SDS011;74414;51.098;13.716;2024-03-25T09:47:50;1.58;;;1.45;;
84266;SDS011;74414;51.098;13.716;2024-03-25T09:50:16;1.98;;;1.50;;
84266;SDS011;74414;51.098;13.716;2024-03-25T09:52:47;2.15;;;1.50;;
84266;SDS011;74414;51.098;13.716;2024-03-25T09:55:14;2.03;;;1.30;;
84266;SDS011;74414;51.098;13.716;2024-03-25T09:57:39;2.60;;;1.30;;
84266;SDS011;74414;51.098;13.716;2024-03-25T10:00:07;2.90;;;1.10;;
84266;SDS011;74414;51.098;13.716;2024-03-25T10:02:34;1.73;;;1.30;;
84266;SDS011;74414;51.098;13.716;2024-03-25T10:05:01;11.93;;;1.92;;
84266;SDS011;74414;51.098;13.716;2024-03-25T10:07:27;2.20;;;1.27;;
84266;SDS011;74414;51.098;13.716;2024-03-25T10:09:53;2.10;;;1.70;;
84266;SDS011;74414;51.098;13.716;2024-03-25T10:12:19;1.77;;;1.30;;
84266;SDS011;74414;51.098;13.716;2024-03-25T10:14:45;3.08;;;1.60;;
84266;SDS011;74414;51.098;13.716;2024-03-25T10:17:10;1.80;;;1.35;;
84266;SDS011;74414;51.098;13.716;2024-03-25T10:19:36;1.45;;;1.25;;
84266;SDS011;74414;51.098;13.716;2024-03-25T10:22:02;2.03;;;0.90;;
84266;SDS011;74414;51.098;13.716;2024-03-25T10:24:50;0.95;;;0.88;;
84266;SDS011;74414;51.098;13.716;2024-03-25T10:27:19;2.83;;;1.52;;
84266;SDS011;74414;51.098;13.716;2024-03-25T10:29:48;1.40;;;1.20;;
84266;SDS011;74414;51.098;13.716;2024-03-25T10:32:17;1.65;;;1.20;;
84266;SDS011;74414;51.098;13.716;2024-03-25T10:34:42;4.07;;;1.70;;
84266;SDS011;74414;51.098;13.716;2024-03-25T10:37:08;2.05;;;1.60;;
84266;SDS011;74414;51.098;13.716;2024-03-25T10:39:38;1.95;;;1.77;;
84266;SDS011;74414;51.098;13.716;2024-03-25T10:42:07;2.63;;;1.67;;
84266;SDS011;74414;51.098;13.716;2024-03-25T10:44:32;4.53;;;1.88;;
84266;SDS011;74414;51.098;13.716;2024-03-25T10:47:02;1.90;;;1.70;;
84266;SDS011;74414;51.098;13.716;2024-03-25T10:49:34;4.38;;;1.77;;
84266;SDS011;74414;51.098;13.716;2024-03-25T10:52:02;3.50;;;1.65;;
84266;SDS011;74414;51.098;13.716;2024-03-25T10:54:29;1.83;;;1.63;;
84266;SDS011;74414;51.098;13.716;2024-03-25T10:56:56;3.78;;;1.58;;
84266;SDS011;74414;51.098;13.716;2024-03-25T10:59:23;2.20;;;1.42;;
84266;SDS011;74414;51.098;13.716;2024-03-25T11:01:49;2.03;;;1.40;;
84266;SDS011;74414;51.098;13.716;2024-03-25T11:04:15;2.22;;;1.40;;
84266;SDS011;74414;51.098;13.716;2024-03-25T11:06:40;1.75;;;1.20;;
84266;SDS011;74414;51.098;13.716;2024-03-25T11:09:06;2.72;;;1.40;;
84266;SDS011;74414;51.098;13.716;2024-03-25T11:11:32;2.80;;;1.73;;
84266;SDS011;74414;51.098;13.716;2024-03-25T11:13:58;4.28;;;2.28;;
84266;SDS011;74414;51.098;13.716;2024-03-25T11:16:30;3.63;;;2.15;;
84266;SDS011;74414;51.098;13.716;2024-03-25T11:19:00;3.92;;;1.52;;
84266;SDS011;74414;51.098;13.716;2024-03-25T11:21:27;3.42;;;2.10;;
84266;SDS011;74414;51.098;13.716;2024-03-25T11:23:52;2.78;;;1.45;;
84266;SDS011;74414;51.098;13.716;2024-03-25T11:26:21;4.57;;;1.73;;
84266;SDS011;74414;51.098;13.716;2024-03-25T11:28:49;2.33;;;1.63;;
84266;SDS011;74414;51.098;13.716;2024-03-25T11:31:14;2.03;;;1.80;;
84266;SDS011;74414;51.098;13.716;2024-03-25T11:33:40;1.52;;;1.42;;
84266;SDS011;74414;51.098;13.716;2024-03-25T11:36:06;3.60;;;2.03;;
84266;SDS011;74414;51.098;13.716;2024-03-25T11:38:32;1.77;;;1.67;;
84266;SDS011;74414;51.098;13.716;2024-03-25T11:40:57;2.33;;;1.80;;
84266;SDS011;74414;51.098;13.716;2024-03-25T11:43:23;2.92;;;1.85;;
84266;SDS011;74414;51.098;13.716;2024-03-25T11:45:48;2.17;;;1.67;;
84266;SDS011;74414;51.098;13.716;2024-03-25T11:48:17;4.03;;;1.75;;
84266;SDS011;74414;51.098;13.716;2024-03-25T11:50:46;2.10;;;1.83;;
84266;SDS011;74414;51.098;13.716;2024-03-25T11:53:15;3.08;;;1.80;;
84266;SDS011;74414;51.098;13.716;2024-03-25T11:55:45;4.18;;;1.92;;
84266;SDS011;74414;51.098;13.716;2024-03-25T11:58:11;2.90;;;1.50;;
84266;SDS011;74414;51.098;13.716;2024-03-25T12:00:42;1.80;;;1.50;;
84266;SDS011;74414;51.098;13.716;2024-03-25T12:03:12;1.80;;;1.60;;
84266;SDS011;74414;51.098;13.716;2024-03-25T12:05:39;2.65;;;1.33;;
84266;SDS011;74414;51.098;13.716;2024-03-25T12:08:08;2.30;;;1.48;;
84266;SDS011;74414;51.098;13.716;2024-03-25T12:10:35;1.20;;;1.10;;
84266;SDS011;74414;51.098;13.716;2024-03-25T12:13:20;3.33;;;1.35;;
84266;SDS011;74414;51.098;13.716;2024-03-25T12:15:45;2.63;;;1.13;;
84266;SDS011;74414;51.098;13.716;2024-03-25T12:18:10;1.08;;;0.90;;
84266;SDS011;74414;51.098;13.716;2024-03-25T12:20:36;2.63;;;1.10;;
84266;SDS011;74414;51.098;13.716;2024-03-25T12:23:02;1.08;;;0.88;;
84266;SDS011;74414;51.098;13.716;2024-03-25T12:25:27;7.43;;;1.60;;
84266;SDS011;74414;51.098;13.716;2024-03-25T12:27:52;2.00;;;1.23;;
84266;SDS011;74414;51.098;13.716;2024-03-25T12:30:19;0.93;;;0.90;;
84266;SDS011;74414;51.098;13.716;2024-03-25T12:32:44;1.65;;;1.20;;
84266;SDS011;74414;51.098;13.716;2024-03-25T12:35:14;1.55;;;1.10;;
84266;SDS011;74414;51.098;13.716;2024-03-25T12:37:46;1.80;;;1.20;;
84266;SDS011;74414;51.098;13.716;2024-03-25T12:40:13;2.60;;;1.10;;
84266;SDS011;74414;51.098;13.716;2024-03-25T12:42:51;1.95;;;1.00;;
84266;SDS011;74414;51.098;13.716;2024-03-25T12:45:17;2.60;;;1.40;;
84266;SDS011;74414;51.098;13.716;2024-03-25T12:47:43;2.70;;;1.40;;
84266;SDS011;74414;51.098;13.716;2024-03-25T12:50:08;2.60;;;1.30;;
84266;SDS011;74414;51.098;13.716;2024-03-25T12:52:34;2.10;;;0.88;;
84266;SDS011;74414;51.098;13.716;2024-03-25T12:54:59;2.15;;;0.90;;
84266;SDS011;74414;51.098;13.716;2024-03-25T12:57:25;1.45;;;1.10;;
84266;SDS011;74414;51.098;13.716;2024-03-25T12:59:50;6.00;;;1.00;;
84266;SDS011;74414;51.098;13.716;2024-03-25T13:02:15;1.77;;;0.90;;
84266;SDS011;74414;51.098;13.716;2024-03-25T13:04:41;1.27;;;0.80;;
84266;SDS011;74414;51.098;13.716;2024-03-25T13:07:09;1.30;;;0.80;;
84266;SDS011;74414;51.098;13.716;2024-03-25T13:09:35;1.65;;;1.42;;
84266;SDS011;74414;51.098;13.716;2024-03-25T13:12:00;1.93;;;1.20;;
84266;SDS011;74414;51.098;13.716;2024-03-25T13:14:26;3.85;;;1.40;;
84266;SDS011;74414;51.098;13.716;2024-03-25T13:16:51;2.28;;;1.20;;
84266;SDS011;74414;51.098;13.716;2024-03-25T13:19:17;1.63;;;1.20;;
84266;SDS011;74414;51.098;13.716;2024-03-25T13:21:45;1.87;;;1.20;;
84266;SDS011;74414;51.098;13.716;2024-03-25T13:24:11;1.67;;;1.30;;
84266;SDS011;74414;51.098;13.716;2024-03-25T13:26:36;2.78;;;1.23;;
84266;SDS011;74414;51.098;13.716;2024-03-25T13:29:01;4.60;;;1.30;;
84266;SDS011;74414;51.098;13.716;2024-03-25T13:31:27;3.03;;;1.27;;
84266;SDS011;74414;51.098;13.716;2024-03-25T13:33:53;1.40;;;1.27;;
84266;SDS011;74414;51.098;13.716;2024-03-25T13:36:18;2.90;;;1.10;;
84266;SDS011;74414;51.098;13.716;2024-03-25T13:38:44;2.63;;;1.07;;
84266;SDS011;74414;51.098;13.716;2024-03-25T13:41:10;4.53;;;1.35;;
84266;SDS011;74414;51.098;13.716;2024-03-25T13:43:35;2.40;;;1.05;;
84266;SDS011;74414;51.098;13.716;2024-03-25T13:46:01;4.23;;;1.00;;
84266;SDS011;74414;51.098;13.716;2024-03-25T13:48:26;1.97;;;1.20;;
84266;SDS011;74414;51.098;13.716;2024-03-25T13:50:54;1.42;;;1.15;;
84266;SDS011;74414;51.098;13.716;2024-03-25T13:53:20;3.45;;;1.30;;
84266;SDS011;74414;51.098;13.716;2024-03-25T13:55:46;3.47;;;1.50;;
84266;SDS011;74414;51.098;13.716;2024-03-25T13:58:11;3.15;;;1.40;;
84266;SDS011;74414;51.098;13.716;2024-03-25T14:00:37;3.38;;;1.70;;
84266;SDS011;74414;51.098;13.716;2024-03-25T14:03:03;3.57;;;2.00;;
84266;SDS011;74414;51.098;13.716;2024-03-25T14:05:28;2.30;;;1.52;;
84266;SDS011;74414;51.098;13.716;2024-03-25T14:07:54;3.50;;;1.50;;
84266;SDS011;74414;51.098;13.716;2024-03-25T14:10:19;3.17;;;1.50;;
84266;SDS011;74414;51.098;13.716;2024-03-25T14:12:45;1.77;;;1.15;;
84266;SDS011;74414;51.098;13.716;2024-03-25T14:15:10;2.88;;;2.40;;
84266;SDS011;74414;51.098;13.716;2024-03-25T14:17:36;2.88;;;1.80;;
84266;SDS011;74414;51.098;13.716;2024-03-25T14:20:01;3.17;;;1.50;;
84266;SDS011;74414;51.098;13.716;2024-03-25T14:22:30;3.00;;;1.33;;
84266;SDS011;74414;51.098;13.716;2024-03-25T14:24:56;3.13;;;1.60;;
84266;SDS011;74414;51.098;13.716;2024-03-25T14:27:25;1.60;;;1.33;;